createdAt,value
2023-03-19T00:00:28.119Z,86.31
2023-03-19T00:02:54.932Z,86.33
2023-03-19T00:05:21.669Z,86.31
2023-03-19T00:07:48.328Z,86.73
2023-03-19T00:10:15.080Z,86.35
2023-03-19T00:12:41.971Z,86.36
2023-03-19T00:15:14.024Z,86.29
2023-03-19T00:17:42.026Z,86.61
2023-03-19T00:20:11.021Z,86.11
2023-03-19T00:22:37.682Z,86.00
2023-03-19T00:25:04.644Z,86.24
2023-03-19T00:27:31.467Z,86.58
2023-03-19T00:29:58.228Z,86.50
2023-03-19T00:32:25.505Z,86.77
2023-03-19T00:34:52.179Z,86.30
2023-03-19T00:37:18.938Z,85.53
2023-03-19T00:39:45.559Z,86.44
2023-03-19T00:42:12.404Z,86.40
2023-03-19T00:44:39.036Z,87.57
2023-03-19T00:47:07.333Z,87.76
2023-03-19T00:49:33.974Z,87.76
2023-03-19T00:52:01.204Z,87.85
2023-03-19T00:54:32.452Z,87.09
2023-03-19T00:56:59.165Z,87.91
2023-03-19T00:59:26.368Z,88.37
2023-03-19T01:01:53.022Z,87.65
2023-03-19T01:04:19.725Z,88.24
2023-03-19T01:06:46.366Z,88.15
2023-03-19T01:09:13.004Z,87.85
2023-03-19T01:11:39.619Z,88.43
2023-03-19T01:14:06.401Z,88.06
2023-03-19T01:16:34.699Z,88.29
2023-03-19T01:19:02.126Z,88.33
2023-03-19T01:21:31.050Z,88.04
2023-03-19T01:23:58.647Z,87.55
2023-03-19T01:26:25.515Z,88.38
2023-03-19T01:28:52.537Z,87.62
2023-03-19T01:31:19.543Z,88.68
2023-03-19T01:33:46.547Z,89.13
2023-03-19T01:36:13.764Z,89.03
2023-03-19T01:38:40.510Z,88.60
2023-03-19T01:41:07.732Z,88.87
2023-03-19T01:43:34.387Z,89.01
2023-03-19T01:46:07.772Z,88.99
2023-03-19T01:48:51.677Z,88.97
2023-03-19T01:51:23.444Z,88.97
2023-03-19T01:53:53.902Z,88.82
2023-03-19T01:56:24.158Z,88.52
2023-03-19T01:58:56.640Z,88.88
2023-03-19T02:01:23.802Z,89.18
2023-03-19T02:03:53.014Z,89.43
2023-03-19T02:06:22.013Z,89.85
2023-03-19T02:08:53.648Z,89.69
2023-03-19T02:11:20.961Z,89.61
2023-03-19T02:13:48.256Z,89.69
2023-03-19T02:16:16.030Z,89.34
2023-03-19T02:18:43.122Z,89.22
2023-03-19T02:21:15.010Z,88.88
2023-03-19T02:24:12.283Z,89.21
2023-03-19T02:26:41.370Z,88.79
2023-03-19T02:29:08.012Z,88.67
2023-03-19T02:31:34.699Z,88.81
2023-03-19T02:34:07.449Z,88.88
2023-03-19T02:36:39.130Z,88.57
2023-03-19T02:39:12.091Z,89.20
2023-03-19T02:41:41.542Z,89.26
2023-03-19T02:44:11.792Z,89.73
2023-03-19T02:46:38.485Z,89.13
2023-03-19T02:49:05.397Z,88.84
2023-03-19T02:51:32.081Z,88.69
2023-03-19T02:54:00.919Z,89.13
2023-03-19T02:56:27.698Z,89.14
2023-03-19T02:58:54.397Z,88.81
2023-03-19T03:01:21.168Z,89.06
2023-03-19T03:03:47.831Z,89.04
2023-03-19T03:06:14.492Z,89.49
2023-03-19T03:08:41.306Z,89.00
2023-03-19T03:11:07.921Z,89.21
2023-03-19T03:13:34.912Z,89.42
2023-03-19T03:16:01.987Z,89.31
2023-03-19T03:18:28.629Z,88.98
2023-03-19T03:20:55.377Z,89.13
2023-03-19T03:23:22.131Z,89.25
2023-03-19T03:25:51.339Z,88.96
2023-03-19T03:28:19.143Z,89.56
2023-03-19T03:30:46.567Z,89.59
2023-03-19T03:33:13.180Z,89.46
2023-03-19T03:35:40.001Z,89.83
2023-03-19T03:38:06.778Z,89.45
2023-03-19T03:40:34.530Z,88.94
2023-03-19T03:43:01.417Z,89.10
2023-03-19T03:45:28.074Z,89.22
2023-03-19T03:47:54.750Z,89.17
2023-03-19T03:50:21.727Z,88.18
2023-03-19T03:52:48.336Z,89.25
2023-03-19T03:55:15.298Z,89.33
2023-03-19T03:57:41.940Z,89.40
2023-03-19T04:00:09.580Z,89.44
2023-03-19T04:02:36.253Z,88.96
2023-03-19T04:05:02.988Z,89.23
2023-03-19T04:07:29.619Z,88.91
2023-03-19T04:09:58.366Z,89.35
2023-03-19T04:12:25.432Z,89.91
2023-03-19T04:14:52.105Z,89.39
2023-03-19T04:17:18.947Z,89.81
2023-03-19T04:19:45.782Z,89.85
2023-03-19T04:22:12.841Z,89.70
2023-03-19T04:24:39.479Z,90.02
2023-03-19T04:27:07.327Z,89.75
2023-03-19T04:29:34.217Z,89.98
2023-03-19T04:32:00.877Z,90.09
2023-03-19T04:34:27.534Z,89.90
2023-03-19T04:36:54.167Z,90.16
2023-03-19T04:39:20.793Z,90.02
2023-03-19T04:41:47.596Z,90.25
2023-03-19T04:44:14.215Z,89.91
2023-03-19T04:46:40.860Z,90.25
2023-03-19T04:49:08.111Z,90.61
2023-03-19T04:51:34.761Z,90.61
2023-03-19T04:54:01.459Z,90.86
2023-03-19T04:56:31.378Z,91.02
2023-03-19T04:58:58.186Z,91.77
2023-03-19T05:01:25.101Z,91.50
2023-03-19T05:03:52.154Z,91.71
2023-03-19T05:06:20.016Z,91.70
2023-03-19T05:08:47.157Z,91.66
2023-03-19T05:11:13.810Z,91.46
2023-03-19T05:13:40.454Z,92.29
2023-03-19T05:16:07.356Z,91.97
2023-03-19T05:18:34.471Z,92.38
2023-03-19T05:21:01.124Z,91.92
2023-03-19T05:23:27.739Z,91.83
2023-03-19T05:25:54.711Z,91.50
2023-03-19T05:28:21.451Z,91.98
2023-03-19T05:30:48.150Z,91.52
2023-03-19T05:33:14.878Z,91.52
2023-03-19T05:35:41.637Z,92.05
2023-03-19T05:38:08.277Z,92.64
2023-03-19T05:40:36.104Z,93.02
2023-03-19T05:43:03.329Z,93.99
2023-03-19T05:45:30.816Z,94.36
2023-03-19T05:47:57.451Z,93.74
2023-03-19T05:50:24.098Z,93.45
2023-03-19T05:52:50.773Z,93.93
2023-03-19T05:55:17.621Z,94.10
2023-03-19T05:57:44.380Z,94.18
2023-03-19T06:00:12.214Z,94.45
2023-03-19T06:02:39.352Z,94.56
2023-03-19T06:05:06.565Z,94.68
2023-03-19T06:07:33.215Z,94.45
2023-03-19T06:10:04.390Z,95.15
2023-03-19T06:12:31.211Z,94.24
2023-03-19T06:14:57.791Z,94.19
2023-03-19T06:17:24.509Z,93.68
2023-03-19T06:19:51.113Z,94.03
2023-03-19T06:22:17.733Z,93.08
2023-03-19T06:24:44.354Z,94.06
2023-03-19T06:27:11.148Z,93.78
2023-03-19T06:29:37.853Z,93.24
2023-03-19T06:32:04.799Z,92.84
2023-03-19T06:34:31.429Z,92.43
2023-03-19T06:36:58.083Z,92.74
2023-03-19T06:39:24.815Z,93.23
2023-03-19T06:41:51.569Z,92.79
2023-03-19T06:44:18.373Z,92.63
2023-03-19T06:46:45.114Z,92.43
2023-03-19T06:49:11.774Z,92.24
2023-03-19T06:51:38.435Z,91.41
2023-03-19T06:54:05.055Z,90.63
2023-03-19T06:56:31.684Z,90.07
2023-03-19T06:58:58.277Z,88.50
2023-03-19T07:01:25.201Z,86.89
2023-03-19T07:03:51.917Z,85.97
2023-03-19T07:06:18.559Z,85.18
2023-03-19T07:08:46.558Z,84.31
2023-03-19T07:11:14.093Z,82.95
2023-03-19T07:13:41.111Z,80.91
2023-03-19T07:16:08.839Z,79.17
2023-03-19T07:18:35.877Z,79.32
2023-03-19T07:21:02.564Z,78.73
2023-03-19T07:23:29.209Z,77.96
2023-03-19T07:25:55.952Z,77.67
2023-03-19T07:28:23.129Z,77.31
2023-03-19T07:30:53.026Z,76.05
2023-03-19T07:33:20.427Z,75.40
2023-03-19T07:35:47.112Z,75.32
2023-03-19T07:38:14.738Z,74.87
2023-03-19T07:40:45.541Z,73.45
2023-03-19T07:43:18.063Z,72.64
2023-03-19T07:45:44.748Z,72.63
2023-03-19T07:48:12.550Z,73.08
2023-03-19T07:50:39.298Z,72.92
2023-03-19T07:53:06.441Z,72.18
2023-03-19T07:55:33.138Z,71.64
2023-03-19T07:58:00.012Z,70.35
2023-03-19T08:00:27.424Z,69.89
2023-03-19T08:02:54.070Z,70.20
2023-03-19T08:05:20.717Z,70.68
2023-03-19T08:07:49.502Z,70.86
2023-03-19T08:10:16.335Z,70.13
2023-03-19T08:12:42.987Z,69.85
2023-03-19T08:15:11.672Z,69.75
2023-03-19T08:17:38.976Z,69.88
2023-03-19T08:20:09.561Z,68.93
2023-03-19T08:22:37.670Z,69.14
2023-03-19T08:25:06.886Z,68.46
2023-03-19T08:27:35.752Z,68.70
2023-03-19T08:30:04.530Z,67.21
2023-03-19T08:32:31.210Z,66.84
2023-03-19T08:34:58.100Z,66.57
2023-03-19T08:37:24.810Z,65.73
2023-03-19T08:39:52.295Z,66.67
2023-03-19T08:42:20.141Z,65.97
2023-03-19T08:44:46.897Z,66.45
2023-03-19T08:47:13.518Z,66.24
2023-03-19T08:49:40.844Z,66.16
2023-03-19T08:52:08.407Z,65.82
2023-03-19T08:54:36.242Z,64.32
2023-03-19T08:57:07.329Z,66.54
2023-03-19T08:59:34.364Z,64.22
2023-03-19T09:02:01.731Z,64.58
2023-03-19T09:04:29.124Z,63.87
2023-03-19T09:06:56.123Z,63.03
2023-03-19T09:09:24.763Z,62.09
2023-03-19T09:11:51.495Z,62.35
2023-03-19T09:14:20.006Z,61.30
2023-03-19T09:16:46.837Z,62.16
2023-03-19T09:19:13.604Z,63.30
2023-03-19T09:21:40.558Z,62.54
2023-03-19T09:24:07.711Z,62.61
2023-03-19T09:26:34.505Z,61.97
2023-03-19T09:29:02.227Z,61.96
2023-03-19T09:31:29.843Z,62.38
2023-03-19T09:33:57.130Z,60.46
2023-03-19T09:36:24.059Z,61.06
2023-03-19T09:38:50.714Z,60.82
2023-03-19T09:41:17.410Z,60.35
2023-03-19T09:43:59.342Z,59.36
2023-03-19T09:46:35.128Z,60.94
2023-03-19T09:49:15.598Z,59.65
2023-03-19T09:51:58.376Z,59.69
2023-03-19T09:54:33.664Z,59.58
2023-03-19T09:57:01.255Z,60.44
2023-03-19T09:59:29.457Z,59.67
2023-03-19T10:02:24.158Z,59.39
2023-03-19T10:05:07.821Z,59.31
2023-03-19T10:07:36.722Z,58.90
2023-03-19T10:10:38.333Z,57.29
2023-03-19T10:13:20.342Z,59.75
2023-03-19T10:15:47.584Z,57.27
2023-03-19T10:18:21.049Z,56.29
2023-03-19T10:21:06.319Z,56.25
2023-03-19T10:23:52.602Z,57.28
2023-03-19T10:26:21.721Z,58.07
2023-03-19T10:29:02.591Z,56.25
2023-03-19T10:31:43.094Z,56.88
2023-03-19T10:34:29.338Z,56.85
2023-03-19T10:37:16.560Z,55.68
2023-03-19T10:39:45.961Z,56.54
2023-03-19T10:42:39.420Z,56.34
2023-03-19T10:45:26.686Z,56.69
2023-03-19T10:47:56.161Z,55.68
2023-03-19T10:50:30.298Z,57.18
2023-03-19T10:53:18.036Z,56.49
2023-03-19T10:55:50.911Z,57.64
2023-03-19T10:58:19.868Z,57.66
2023-03-19T11:00:48.742Z,58.72
2023-03-19T11:03:33.320Z,58.66
2023-03-19T11:06:31.266Z,59.14
2023-03-19T11:09:03.450Z,60.48
2023-03-19T11:11:36.820Z,58.99
2023-03-19T11:14:09.523Z,58.80
2023-03-19T11:16:55.020Z,57.98
2023-03-19T11:19:26.469Z,58.37
2023-03-19T11:22:01.431Z,58.18
2023-03-19T11:24:31.322Z,58.35
2023-03-19T11:26:58.496Z,58.67
2023-03-19T11:29:28.232Z,58.69
2023-03-19T11:32:21.313Z,59.03
2023-03-19T11:35:10.900Z,57.91
2023-03-19T11:37:49.635Z,58.05
2023-03-19T11:40:31.926Z,59.14
2023-03-19T11:43:00.612Z,58.94
2023-03-19T11:45:47.451Z,58.26
2023-03-19T11:48:30.378Z,57.76
2023-03-19T11:51:16.186Z,57.58
2023-03-19T11:53:58.102Z,57.84
2023-03-19T11:56:43.124Z,56.96
2023-03-19T11:59:31.232Z,56.55
2023-03-19T12:02:28.470Z,56.08
2023-03-19T12:04:55.022Z,57.51
2023-03-19T12:07:22.638Z,57.33
2023-03-19T12:10:10.145Z,56.74
2023-03-19T12:12:49.877Z,57.52
2023-03-19T12:15:22.930Z,57.30
2023-03-19T12:18:07.786Z,56.59
2023-03-19T12:20:48.767Z,57.83
2023-03-19T12:23:24.409Z,57.61
2023-03-19T12:26:00.348Z,58.54
2023-03-19T12:28:30.741Z,57.38
2023-03-19T12:31:09.646Z,57.14
2023-03-19T12:33:56.681Z,57.41
2023-03-19T12:36:29.455Z,57.88
2023-03-19T12:39:05.426Z,57.34
2023-03-19T12:41:35.636Z,57.66
2023-03-19T12:44:20.134Z,58.77
2023-03-19T12:47:05.301Z,57.99
2023-03-19T12:49:52.418Z,57.38
2023-03-19T12:52:19.037Z,57.27
2023-03-19T12:54:53.323Z,57.44
2023-03-19T12:57:35.589Z,57.42
2023-03-19T13:00:10.116Z,56.78
2023-03-19T13:02:52.195Z,57.47
2023-03-19T13:05:39.860Z,57.11
2023-03-19T13:08:23.602Z,57.28
2023-03-19T13:10:50.295Z,57.50
2023-03-19T13:13:27.108Z,57.79
2023-03-19T13:15:59.258Z,58.92
2023-03-19T13:18:27.917Z,59.07
2023-03-19T13:21:29.839Z,59.08
2023-03-19T13:24:09.064Z,58.77
2023-03-19T13:26:36.529Z,58.23
2023-03-19T13:29:17.076Z,58.28
2023-03-19T13:31:44.141Z,57.26
2023-03-19T13:34:22.065Z,56.83
2023-03-19T13:36:55.256Z,57.98
2023-03-19T13:39:28.143Z,58.23
2023-03-19T13:42:07.854Z,58.93
2023-03-19T13:44:41.398Z,57.62
2023-03-19T13:47:38.381Z,58.08
2023-03-19T13:50:06.103Z,57.63
2023-03-19T13:52:32.780Z,58.69
2023-03-19T13:55:31.200Z,56.72
2023-03-19T13:58:17.937Z,56.84
2023-03-19T14:00:45.155Z,56.91
2023-03-19T14:03:29.980Z,56.41
2023-03-19T14:05:59.263Z,57.34
2023-03-19T14:08:29.960Z,57.06
2023-03-19T14:11:03.210Z,57.29
2023-03-19T14:13:45.063Z,57.54
2023-03-19T14:16:27.396Z,57.02
2023-03-19T14:19:00.457Z,56.43
2023-03-19T14:21:46.511Z,56.87
2023-03-19T14:27:32.881Z,56.72
2023-03-19T14:30:09.411Z,57.45
2023-03-19T14:32:41.067Z,58.35
2023-03-19T14:35:14.935Z,57.77
2023-03-19T14:37:50.912Z,57.88
2023-03-19T14:40:27.033Z,57.80
2023-03-19T14:43:02.959Z,57.80
2023-03-19T14:45:49.677Z,57.60
2023-03-19T14:48:31.400Z,58.18
2023-03-19T14:51:14.391Z,57.88
2023-03-19T14:53:46.404Z,57.42
2023-03-19T14:56:16.033Z,56.93
2023-03-19T14:58:52.960Z,57.09
2023-03-19T15:01:21.561Z,55.53
2023-03-19T15:03:55.500Z,55.99
2023-03-19T15:06:22.679Z,56.28
2023-03-19T15:08:50.182Z,56.15
2023-03-19T15:11:34.635Z,55.24
2023-03-19T15:14:23.467Z,56.32
2023-03-19T15:17:13.694Z,56.59
2023-03-19T15:19:40.996Z,57.12
